createdAt,value
2022-12-01T21:14:52.657Z,37.50
2022-12-01T21:17:38.685Z,46.40
2022-12-01T21:20:40.466Z,42.40
2022-12-01T21:25:57.716Z,28.40
2022-12-01T21:28:34.346Z,30.10
2022-12-01T21:31:17.380Z,29.40
2022-12-01T21:33:54.585Z,36.30
2022-12-01T21:36:36.086Z,27.60
2022-12-01T21:39:30.587Z,28.90
2022-12-01T21:42:26.300Z,31.30
2022-12-01T21:45:02.975Z,26.80
2022-12-01T21:47:39.386Z,28.60
2022-12-01T21:50:27.447Z,29.90
2022-12-01T21:53:09.977Z,33.00
2022-12-01T21:55:49.354Z,29.60
2022-12-01T21:58:38.660Z,30.40
2022-12-01T22:01:29.067Z,28.10
2022-12-01T22:04:17.132Z,23.30
2022-12-01T22:06:57.659Z,31.00
2022-12-01T22:09:37.522Z,29.90
2022-12-01T22:12:28.852Z,26.80
2022-12-01T22:15:29.224Z,31.40
2022-12-01T22:18:11.941Z,33.00
2022-12-01T22:20:47.811Z,31.30
2022-12-01T22:23:27.099Z,26.90
2022-12-01T22:26:03.094Z,29.20
2022-12-01T22:28:39.555Z,28.90
2022-12-01T22:31:22.909Z,27.10
2022-12-01T22:34:03.772Z,26.00
2022-12-01T22:36:39.979Z,26.50
2022-12-01T22:39:34.341Z,25.80
2022-12-01T22:42:23.320Z,27.70
2022-12-01T22:45:02.417Z,25.40
2022-12-01T22:47:38.925Z,26.50
2022-12-01T22:50:30.688Z,27.60
2022-12-01T22:53:18.127Z,24.50
2022-12-01T22:55:59.160Z,23.50
2022-12-01T22:58:42.325Z,28.00
2022-12-01T23:01:30.329Z,24.70
2022-12-01T23:04:26.642Z,22.80
2022-12-01T23:07:27.991Z,26.70
2022-12-01T23:10:12.082Z,23.40
2022-12-01T23:12:50.829Z,22.90
2022-12-01T23:15:36.537Z,27.30
2022-12-01T23:18:22.990Z,25.60
2022-12-01T23:21:01.271Z,23.40
2022-12-01T23:23:39.638Z,25.30
2022-12-01T23:26:15.514Z,21.30
2022-12-01T23:28:51.739Z,22.00
2022-12-01T23:31:28.623Z,23.50
2022-12-01T23:34:05.694Z,22.50
2022-12-01T23:36:42.549Z,25.70
2022-12-01T23:39:24.677Z,24.10
2022-12-01T23:42:01.614Z,22.00
2022-12-01T23:44:45.714Z,23.10
2022-12-01T23:47:26.488Z,20.50
2022-12-01T23:50:07.939Z,25.80
2022-12-01T23:52:44.700Z,22.70
2022-12-01T23:55:27.178Z,21.30
2022-12-01T23:58:04.508Z,21.00
